sensor_id;sensor_type;location;lat;lon;timestamp;pressure;altitude;pressure_sealevel;temperature;humidity
10978;BME280;5542;48.272;10.794;2022-11-15T00:00:55;95624.94;;;4.87;88.07
10978;BME280;5542;48.272;10.794;2022-11-15T00:03:24;95618.56;;;4.90;87.81
10978;BME280;5542;48.272;10.794;2022-11-15T00:05:52;95618.13;;;4.86;87.46
10978;BME280;5542;48.272;10.794;2022-11-15T00:08:19;95621.13;;;4.83;87.78
10978;BME280;5542;48.272;10.794;2022-11-15T00:10:54;95619.72;;;4.81;87.91
10978;BME280;5542;48.272;10.794;2022-11-15T00:13:20;95614.50;;;4.81;87.73
10978;BME280;5542;48.272;10.794;2022-11-15T00:15:47;95612.91;;;4.80;87.74
10978;BME280;5542;48.272;10.794;2022-11-15T00:18:14;95609.09;;;4.82;87.50
10978;BME280;5542;48.272;10.794;2022-11-15T00:20:41;95603.66;;;4.77;87.34
10978;BME280;5542;48.272;10.794;2022-11-15T00:23:09;95598.22;;;4.72;87.43
10978;BME280;5542;48.272;10.794;2022-11-15T00:25:36;95599.63;;;4.68;87.60
10978;BME280;5542;48.272;10.794;2022-11-15T00:28:03;95594.59;;;4.67;87.78
10978;BME280;5542;48.272;10.794;2022-11-15T00:30:29;95595.78;;;4.64;87.86
10978;BME280;5542;48.272;10.794;2022-11-15T00:32:56;95597.38;;;4.65;87.72
10978;BME280;5542;48.272;10.794;2022-11-15T00:35:22;95590.56;;;4.64;87.78
10978;BME280;5542;48.272;10.794;2022-11-15T00:37:49;95586.16;;;4.65;87.96
10978;BME280;5542;48.272;10.794;2022-11-15T00:40:17;95584.19;;;4.67;88.03
10978;BME280;5542;48.272;10.794;2022-11-15T00:42:44;95583.97;;;4.68;87.72
10978;BME280;5542;48.272;10.794;2022-11-15T00:45:10;95577.97;;;4.68;87.73
10978;BME280;5542;48.272;10.794;2022-11-15T00:47:37;95579.97;;;4.66;87.64
10978;BME280;5542;48.272;10.794;2022-11-15T00:50:04;95581.59;;;4.67;87.63
10978;BME280;5542;48.272;10.794;2022-11-15T00:52:31;95580.78;;;4.66;87.53
10978;BME280;5542;48.272;10.794;2022-11-15T00:54:57;95583.56;;;4.65;87.51
10978;BME280;5542;48.272;10.794;2022-11-15T00:57:25;95585.19;;;4.66;87.23
10978;BME280;5542;48.272;10.794;2022-11-15T00:59:52;95589.56;;;4.65;86.88
10978;BME280;5542;48.272;10.794;2022-11-15T01:02:18;95590.97;;;4.61;86.77
10978;BME280;5542;48.272;10.794;2022-11-15T01:04:45;95589.75;;;4.57;86.80
10978;BME280;5542;48.272;10.794;2022-11-15T01:07:12;95578.72;;;4.55;86.63
10978;BME280;5542;48.272;10.794;2022-11-15T01:09:38;95588.34;;;4.54;86.70
10978;BME280;5542;48.272;10.794;2022-11-15T01:12:05;95581.09;;;4.50;87.00
10978;BME280;5542;48.272;10.794;2022-11-15T01:14:33;95579.88;;;4.46;86.78
10978;BME280;5542;48.272;10.794;2022-11-15T01:16:59;95580.44;;;4.34;86.88
10978;BME280;5542;48.272;10.794;2022-11-15T01:19:26;95579.19;;;4.30;87.17
10978;BME280;5542;48.272;10.794;2022-11-15T01:21:52;95579.00;;;4.32;87.20
10978;BME280;5542;48.272;10.794;2022-11-15T01:24:19;95572.63;;;4.34;87.28
10978;BME280;5542;48.272;10.794;2022-11-15T01:26:45;95569.22;;;4.34;87.09
10978;BME280;5542;48.272;10.794;2022-11-15T01:29:12;95570.22;;;4.33;87.10
10978;BME280;5542;48.272;10.794;2022-11-15T01:31:40;95566.63;;;4.34;86.91
10978;BME280;5542;48.272;10.794;2022-11-15T01:34:06;95567.41;;;4.34;86.88
10978;BME280;5542;48.272;10.794;2022-11-15T01:36:33;95566.63;;;4.34;86.80
10978;BME280;5542;48.272;10.794;2022-11-15T01:39:00;95561.41;;;4.34;86.77
10978;BME280;5542;48.272;10.794;2022-11-15T01:41:29;95566.19;;;4.30;86.73
10978;BME280;5542;48.272;10.794;2022-11-15T01:43:57;95559.34;;;4.23;86.85
10978;BME280;5542;48.272;10.794;2022-11-15T01:46:29;95562.34;;;4.20;86.52
10978;BME280;5542;48.272;10.794;2022-11-15T01:49:00;95562.09;;;4.15;86.97
10978;BME280;5542;48.272;10.794;2022-11-15T01:51:29;95561.09;;;4.09;86.88
10978;BME280;5542;48.272;10.794;2022-11-15T01:54:00;95560.06;;;4.10;86.93
10978;BME280;5542;48.272;10.794;2022-11-15T01:56:30;95559.28;;;4.09;86.68
10978;BME280;5542;48.272;10.794;2022-11-15T01:59:00;95565.28;;;4.10;86.65
10978;BME280;5542;48.272;10.794;2022-11-15T02:01:28;95561.69;;;4.11;86.34
10978;BME280;5542;48.272;10.794;2022-11-15T02:04:00;95556.03;;;4.07;86.44
10978;BME280;5542;48.272;10.794;2022-11-15T02:06:30;95550.84;;;4.07;86.64
10978;BME280;5542;48.272;10.794;2022-11-15T02:08:57;95546.44;;;4.08;86.89
10978;BME280;5542;48.272;10.794;2022-11-15T02:11:25;95542.22;;;4.07;86.76
10978;BME280;5542;48.272;10.794;2022-11-15T02:13:52;95537.44;;;4.04;86.98
10978;BME280;5542;48.272;10.794;2022-11-15T02:16:25;95536.19;;;4.00;87.20
10978;BME280;5542;48.272;10.794;2022-11-15T02:18:58;95531.38;;;3.97;87.31
10978;BME280;5542;48.272;10.794;2022-11-15T02:21:32;95526.16;;;3.97;87.17
10978;BME280;5542;48.272;10.794;2022-11-15T02:24:43;95529.13;;;3.94;87.18
10978;BME280;5542;48.272;10.794;2022-11-15T02:30:33;95512.69;;;3.87;87.23
10978;BME280;5542;48.272;10.794;2022-11-15T02:33:05;95504.03;;;3.79;87.30
10978;BME280;5542;48.272;10.794;2022-11-15T02:35:44;95499.84;;;3.78;87.31
10978;BME280;5542;48.272;10.794;2022-11-15T02:38:17;95498.47;;;3.82;87.49
10978;BME280;5542;48.272;10.794;2022-11-15T02:40:51;95498.09;;;3.85;87.57
10978;BME280;5542;48.272;10.794;2022-11-15T02:43:25;95500.28;;;3.89;87.36
10978;BME280;5542;48.272;10.794;2022-11-15T02:46:14;95496.50;;;3.91;87.01
10978;BME280;5542;48.272;10.794;2022-11-15T02:48:44;95486.69;;;3.87;86.54
10978;BME280;5542;48.272;10.794;2022-11-15T02:51:12;95492.03;;;3.78;86.73
10978;BME280;5542;48.272;10.794;2022-11-15T02:53:39;95491.03;;;3.79;86.70
10978;BME280;5542;48.272;10.794;2022-11-15T02:56:09;95488.06;;;3.82;86.10
10978;BME280;5542;48.272;10.794;2022-11-15T02:58:48;95487.41;;;3.74;86.63
10978;BME280;5542;48.272;10.794;2022-11-15T03:01:32;95475.97;;;3.68;86.98
10978;BME280;5542;48.272;10.794;2022-11-15T03:04:08;95483.97;;;3.67;87.00
10978;BME280;5542;48.272;10.794;2022-11-15T03:06:44;95478.16;;;3.65;87.17
10978;BME280;5542;48.272;10.794;2022-11-15T03:09:23;95485.56;;;3.68;86.59
10978;BME280;5542;48.272;10.794;2022-11-15T03:11:59;95487.50;;;3.59;85.90
10978;BME280;5542;48.272;10.794;2022-11-15T03:14:30;95478.81;;;3.45;85.94
10978;BME280;5542;48.272;10.794;2022-11-15T03:17:03;95473.03;;;3.43;85.87
10978;BME280;5542;48.272;10.794;2022-11-15T03:19:35;95484.41;;;3.42;85.63
10978;BME280;5542;48.272;10.794;2022-11-15T03:22:10;95478.72;;;3.32;85.83
10978;BME280;5542;48.272;10.794;2022-11-15T03:24:38;95469.09;;;3.26;86.12
10978;BME280;5542;48.272;10.794;2022-11-15T03:27:06;95468.41;;;3.17;86.78
10978;BME280;5542;48.272;10.794;2022-11-15T03:29:37;95472.25;;;3.21;87.38
10978;BME280;5542;48.272;10.794;2022-11-15T03:32:11;95466.06;;;3.22;87.72
10978;BME280;5542;48.272;10.794;2022-11-15T03:34:42;95459.50;;;3.26;87.44
10978;BME280;5542;48.272;10.794;2022-11-15T03:37:12;95457.53;;;3.28;87.71
10978;BME280;5542;48.272;10.794;2022-11-15T03:39:41;95448.09;;;3.27;88.08
10978;BME280;5542;48.272;10.794;2022-11-15T03:42:16;95454.53;;;3.31;87.81
10978;BME280;5542;48.272;10.794;2022-11-15T03:44:47;95460.34;;;3.33;87.78
10978;BME280;5542;48.272;10.794;2022-11-15T03:47:21;95457.75;;;3.33;88.18
10978;BME280;5542;48.272;10.794;2022-11-15T03:49:51;95451.56;;;3.34;88.19
10978;BME280;5542;48.272;10.794;2022-11-15T03:52:19;95455.72;;;3.29;88.31
10978;BME280;5542;48.272;10.794;2022-11-15T03:54:51;95455.28;;;3.25;88.43
10978;BME280;5542;48.272;10.794;2022-11-15T03:57:18;95459.13;;;3.29;88.65
10978;BME280;5542;48.272;10.794;2022-11-15T03:59:45;95445.94;;;3.31;88.80
10978;BME280;5542;48.272;10.794;2022-11-15T04:02:11;95454.53;;;3.31;88.89
10978;BME280;5542;48.272;10.794;2022-11-15T04:04:39;95457.53;;;3.28;88.79
10978;BME280;5542;48.272;10.794;2022-11-15T04:07:06;95455.09;;;3.27;88.67
10978;BME280;5542;48.272;10.794;2022-11-15T04:09:33;95453.56;;;3.32;88.68
10978;BME280;5542;48.272;10.794;2022-11-15T04:12:19;95448.97;;;3.34;88.41
10978;BME280;5542;48.272;10.794;2022-11-15T04:14:56;95438.56;;;3.34;88.12
10978;BME280;5542;48.272;10.794;2022-11-15T04:17:33;95434.72;;;3.30;87.75
10978;BME280;5542;48.272;10.794;2022-11-15T04:20:01;95436.53;;;3.30;86.86
10978;BME280;5542;48.272;10.794;2022-11-15T04:22:46;95434.13;;;3.28;86.49
10978;BME280;5542;48.272;10.794;2022-11-15T04:25:30;95434.25;;;3.20;86.35
10978;BME280;5542;48.272;10.794;2022-11-15T04:27:56;95428.63;;;3.17;86.50
10978;BME280;5542;48.272;10.794;2022-11-15T04:30:23;95428.84;;;3.15;86.78
10978;BME280;5542;48.272;10.794;2022-11-15T04:32:49;95426.66;;;3.19;86.61
10978;BME280;5542;48.272;10.794;2022-11-15T04:35:17;95424.88;;;3.19;86.69
10978;BME280;5542;48.272;10.794;2022-11-15T04:37:44;95419.03;;;3.17;86.88
10978;BME280;5542;48.272;10.794;2022-11-15T04:40:10;95414.47;;;3.19;87.26
10978;BME280;5542;48.272;10.794;2022-11-15T04:42:37;95408.28;;;3.20;87.19
10978;BME280;5542;48.272;10.794;2022-11-15T04:45:04;95413.84;;;3.17;87.19
10978;BME280;5542;48.272;10.794;2022-11-15T04:47:31;95414.25;;;3.14;87.13
10978;BME280;5542;48.272;10.794;2022-11-15T04:49:57;95408.41;;;3.12;87.06
10978;BME280;5542;48.272;10.794;2022-11-15T04:52:25;95411.81;;;3.13;87.07
10978;BME280;5542;48.272;10.794;2022-11-15T04:54:52;95408.59;;;3.11;87.13
10978;BME280;5542;48.272;10.794;2022-11-15T04:57:18;95413.78;;;3.04;87.51
10978;BME280;5542;48.272;10.794;2022-11-15T04:59:45;95411.78;;;3.06;87.68
10978;BME280;5542;48.272;10.794;2022-11-15T05:02:12;95414.00;;;3.09;87.58
10978;BME280;5542;48.272;10.794;2022-11-15T05:04:39;95401.63;;;3.11;87.87
10978;BME280;5542;48.272;10.794;2022-11-15T05:07:04;95402.63;;;3.10;87.52
10978;BME280;5542;48.272;10.794;2022-11-15T05:09:32;95400.38;;;3.07;87.62
10978;BME280;5542;48.272;10.794;2022-11-15T05:11:59;95402.97;;;3.07;87.40
10978;BME280;5542;48.272;10.794;2022-11-15T05:14:25;95400.00;;;3.10;87.67
10978;BME280;5542;48.272;10.794;2022-11-15T05:16:52;95395.81;;;3.09;87.78
10978;BME280;5542;48.272;10.794;2022-11-15T05:19:18;95387.63;;;3.12;87.72
10978;BME280;5542;48.272;10.794;2022-11-15T05:21:45;95392.81;;;3.12;87.39
10978;BME280;5542;48.272;10.794;2022-11-15T05:24:11;95391.41;;;3.10;87.50
10978;BME280;5542;48.272;10.794;2022-11-15T05:26:40;95383.78;;;3.08;87.44
10978;BME280;5542;48.272;10.794;2022-11-15T05:29:09;95394.19;;;3.08;87.16
10978;BME280;5542;48.272;10.794;2022-11-15T05:31:39;95387.03;;;3.10;86.90
10978;BME280;5542;48.272;10.794;2022-11-15T05:34:06;95391.22;;;3.11;86.46
10978;BME280;5542;48.272;10.794;2022-11-15T05:36:36;95394.81;;;3.10;85.99
10978;BME280;5542;48.272;10.794;2022-11-15T05:39:05;95394.19;;;3.08;85.39
10978;BME280;5542;48.272;10.794;2022-11-15T05:41:34;95382.97;;;3.01;85.89
10978;BME280;5542;48.272;10.794;2022-11-15T05:44:05;95378.94;;;2.98;85.81
10978;BME280;5542;48.272;10.794;2022-11-15T05:46:34;95376.16;;;3.00;86.21
10978;BME280;5542;48.272;10.794;2022-11-15T05:49:05;95375.53;;;2.98;86.17
10978;BME280;5542;48.272;10.794;2022-11-15T05:51:33;95386.56;;;3.00;86.10
10978;BME280;5542;48.272;10.794;2022-11-15T05:54:00;95383.16;;;2.99;85.86
10978;BME280;5542;48.272;10.794;2022-11-15T05:56:28;95377.09;;;2.92;85.83
10978;BME280;5542;48.272;10.794;2022-11-15T05:58:56;95375.88;;;2.88;85.96
10978;BME280;5542;48.272;10.794;2022-11-15T06:01:26;95378.22;;;2.83;85.49
10978;BME280;5542;48.272;10.794;2022-11-15T06:03:54;95375.19;;;2.79;85.63
10978;BME280;5542;48.272;10.794;2022-11-15T06:06:20;95379.41;;;2.80;85.47
10978;BME280;5542;48.272;10.794;2022-11-15T06:08:47;95379.78;;;2.77;85.77
10978;BME280;5542;48.272;10.794;2022-11-15T06:11:14;95378.19;;;2.76;85.76
10978;BME280;5542;48.272;10.794;2022-11-15T06:13:40;95376.19;;;2.78;85.76
10978;BME280;5542;48.272;10.794;2022-11-15T06:16:07;95376.81;;;2.80;85.80
10978;BME280;5542;48.272;10.794;2022-11-15T06:18:35;95378.78;;;2.78;85.58
10978;BME280;5542;48.272;10.794;2022-11-15T06:21:02;95375.34;;;2.71;85.31
10978;BME280;5542;48.272;10.794;2022-11-15T06:23:32;95375.53;;;2.70;85.75
10978;BME280;5542;48.272;10.794;2022-11-15T06:25:59;95376.31;;;2.70;85.47
10978;BME280;5542;48.272;10.794;2022-11-15T06:28:28;95379.75;;;2.71;85.42
10978;BME280;5542;48.272;10.794;2022-11-15T06:30:55;95379.19;;;2.75;85.36
10978;BME280;5542;48.272;10.794;2022-11-15T06:33:21;95374.78;;;2.76;85.35
10978;BME280;5542;48.272;10.794;2022-11-15T06:35:49;95380.59;;;2.78;85.48
10978;BME280;5542;48.272;10.794;2022-11-15T06:38:15;95387.56;;;2.77;85.46
10978;BME280;5542;48.272;10.794;2022-11-15T06:40:42;95385.59;;;2.79;85.52
10978;BME280;5542;48.272;10.794;2022-11-15T06:43:09;95386.22;;;2.81;85.53
10978;BME280;5542;48.272;10.794;2022-11-15T06:45:35;95386.38;;;2.80;85.40
10978;BME280;5542;48.272;10.794;2022-11-15T06:48:02;95381.94;;;2.74;85.24
10978;BME280;5542;48.272;10.794;2022-11-15T06:50:28;95383.88;;;2.65;84.92
10978;BME280;5542;48.272;10.794;2022-11-15T06:53:00;95385.66;;;2.65;84.84
10978;BME280;5542;48.272;10.794;2022-11-15T06:55:27;95395.88;;;2.66;85.30
10978;BME280;5542;48.272;10.794;2022-11-15T06:57:53;95389.69;;;2.67;85.19
10978;BME280;5542;48.272;10.794;2022-11-15T07:00:21;95391.91;;;2.70;85.30
10978;BME280;5542;48.272;10.794;2022-11-15T07:02:48;95386.72;;;2.70;85.07
10978;BME280;5542;48.272;10.794;2022-11-15T07:05:15;95385.91;;;2.70;85.31
10978;BME280;5542;48.272;10.794;2022-11-15T07:07:41;95388.13;;;2.73;84.87
10978;BME280;5542;48.272;10.794;2022-11-15T07:10:09;95390.69;;;2.66;85.02
10978;BME280;5542;48.272;10.794;2022-11-15T07:12:36;95382.66;;;2.61;85.27
10978;BME280;5542;48.272;10.794;2022-11-15T07:15:03;95387.34;;;2.72;86.32
10978;BME280;5542;48.272;10.794;2022-11-15T07:17:30;95384.84;;;2.86;87.01
10978;BME280;5542;48.272;10.794;2022-11-15T07:19:56;95382.63;;;3.11;87.32
10978;BME280;5542;48.272;10.794;2022-11-15T07:22:23;95376.78;;;3.37;88.72
10978;BME280;5542;48.272;10.794;2022-11-15T07:24:49;95373.00;;;3.80;88.84
10978;BME280;5542;48.272;10.794;2022-11-15T07:27:17;95364.53;;;4.33;88.03
10978;BME280;5542;48.272;10.794;2022-11-15T07:29:44;95366.78;;;4.89;85.65
10978;BME280;5542;48.272;10.794;2022-11-15T07:32:10;95357.47;;;5.46;83.13
10978;BME280;5542;48.272;10.794;2022-11-15T07:34:37;95353.09;;;5.98;80.33
10978;BME280;5542;48.272;10.794;2022-11-15T07:37:04;95354.63;;;6.44;76.61
10978;BME280;5542;48.272;10.794;2022-11-15T07:39:30;95355.47;;;6.95;74.03
10978;BME280;5542;48.272;10.794;2022-11-15T07:41:57;95353.34;;;7.28;71.59
10978;BME280;5542;48.272;10.794;2022-11-15T07:44:39;95360.06;;;7.61;70.05
10978;BME280;5542;48.272;10.794;2022-11-15T07:47:05;95353.94;;;7.67;69.24
10978;BME280;5542;48.272;10.794;2022-11-15T07:49:32;95360.56;;;7.51;68.91
10978;BME280;5542;48.272;10.794;2022-11-15T07:51:58;95351.59;;;7.40;70.01
10978;BME280;5542;48.272;10.794;2022-11-15T07:54:25;95347.47;;;7.51;69.87
10978;BME280;5542;48.272;10.794;2022-11-15T07:56:52;95337.66;;;7.65;70.46
10978;BME280;5542;48.272;10.794;2022-11-15T07:59:18;95337.47;;;7.78;69.76
10978;BME280;5542;48.272;10.794;2022-11-15T08:01:47;95326.72;;;7.86;69.30
10978;BME280;5542;48.272;10.794;2022-11-15T08:04:13;95323.09;;;8.17;68.56
10978;BME280;5542;48.272;10.794;2022-11-15T08:06:40;95326.09;;;8.63;67.51
10978;BME280;5542;48.272;10.794;2022-11-15T08:09:06;95327.97;;;8.97;66.32
10978;BME280;5542;48.272;10.794;2022-11-15T08:11:33;95320.31;;;9.31;65.41
10978;BME280;5542;48.272;10.794;2022-11-15T08:13:59;95315.00;;;9.78;63.83
10978;BME280;5542;48.272;10.794;2022-11-15T08:16:26;95317.00;;;10.28;62.83
10978;BME280;5542;48.272;10.794;2022-11-15T08:18:54;95309.38;;;10.77;61.21
10978;BME280;5542;48.272;10.794;2022-11-15T08:21:21;95308.25;;;11.23;59.96
10978;BME280;5542;48.272;10.794;2022-11-15T08:23:48;95305.09;;;11.65;58.49
10978;BME280;5542;48.272;10.794;2022-11-15T08:26:15;95293.13;;;11.96;57.09
10978;BME280;5542;48.272;10.794;2022-11-15T08:28:41;95288.59;;;12.19;54.43
10978;BME280;5542;48.272;10.794;2022-11-15T08:31:13;95287.91;;;12.28;54.38
10978;BME280;5542;48.272;10.794;2022-11-15T08:33:40;95293.44;;;12.27;54.56
10978;BME280;5542;48.272;10.794;2022-11-15T08:36:12;95292.78;;;12.42;53.13
10978;BME280;5542;48.272;10.794;2022-11-15T08:38:39;95286.94;;;12.35;53.13
10978;BME280;5542;48.272;10.794;2022-11-15T08:41:06;95286.66;;;12.09;54.57
10978;BME280;5542;48.272;10.794;2022-11-15T08:43:32;95276.22;;;11.92;55.62
10978;BME280;5542;48.272;10.794;2022-11-15T08:45:59;95286.19;;;11.68;55.73
10978;BME280;5542;48.272;10.794;2022-11-15T08:48:26;95288.88;;;11.51;56.70
10978;BME280;5542;48.272;10.794;2022-11-15T08:50:53;95290.19;;;11.32;57.85
10978;BME280;5542;48.272;10.794;2022-11-15T08:53:22;95290.69;;;11.29;58.48
10978;BME280;5542;48.272;10.794;2022-11-15T08:55:48;95291.91;;;11.05;58.32
10978;BME280;5542;48.272;10.794;2022-11-15T08:58:15;95294.56;;;10.88;59.35
10978;BME280;5542;48.272;10.794;2022-11-15T09:00:41;95288.75;;;10.86;56.72
10978;BME280;5542;48.272;10.794;2022-11-15T09:03:08;95287.69;;;10.53;57.55
10978;BME280;5542;48.272;10.794;2022-11-15T09:05:36;95289.19;;;10.32;58.50
10978;BME280;5542;48.272;10.794;2022-11-15T09:08:03;95295.97;;;10.28;60.35
10978;BME280;5542;48.272;10.794;2022-11-15T09:10:31;95305.22;;;10.31;60.89
10978;BME280;5542;48.272;10.794;2022-11-15T09:12:57;95299.88;;;10.14;61.92
10978;BME280;5542;48.272;10.794;2022-11-15T09:15:24;95287.78;;;10.13;60.47
10978;BME280;5542;48.272;10.794;2022-11-15T09:17:51;95287.91;;;10.06;60.52
10978;BME280;5542;48.272;10.794;2022-11-15T09:20:17;95284.47;;;9.89;59.69
10978;BME280;5542;48.272;10.794;2022-11-15T09:22:44;95279.63;;;9.69;61.69
10978;BME280;5542;48.272;10.794;2022-11-15T09:25:11;95273.03;;;9.55;62.56
10978;BME280;5542;48.272;10.794;2022-11-15T09:27:38;95278.50;;;9.53;62.16
10978;BME280;5542;48.272;10.794;2022-11-15T09:30:07;95281.13;;;9.53;62.10
10978;BME280;5542;48.272;10.794;2022-11-15T09:32:33;95275.06;;;9.53;60.47
10978;BME280;5542;48.272;10.794;2022-11-15T09:35:00;95275.78;;;9.48;61.18
10978;BME280;5542;48.272;10.794;2022-11-15T09:37:28;95275.97;;;9.58;62.59
10978;BME280;5542;48.272;10.794;2022-11-15T09:39:54;95271.06;;;9.62;61.76
10978;BME280;5542;48.272;10.794;2022-11-15T09:42:33;95270.03;;;9.63;61.47
10978;BME280;5542;48.272;10.794;2022-11-15T09:45:13;95262.53;;;9.55;60.61
10978;BME280;5542;48.272;10.794;2022-11-15T09:47:54;95264.47;;;9.47;59.97
10978;BME280;5542;48.272;10.794;2022-11-15T09:50:32;95256.38;;;9.49;61.28
10978;BME280;5542;48.272;10.794;2022-11-15T09:53:02;95249.72;;;9.58;61.57
10978;BME280;5542;48.272;10.794;2022-11-15T09:55:36;95245.38;;;9.64;62.10
10978;BME280;5542;48.272;10.794;2022-11-15T09:58:15;95245.16;;;9.65;63.39
10978;BME280;5542;48.272;10.794;2022-11-15T10:00:47;95234.88;;;9.64;63.59
10978;BME280;5542;48.272;10.794;2022-11-15T10:03:23;95233.16;;;9.69;63.62
10978;BME280;5542;48.272;10.794;2022-11-15T10:05:54;95222.50;;;9.76;64.60
10978;BME280;5542;48.272;10.794;2022-11-15T10:08:50;95212.03;;;9.93;63.86
10978;BME280;5542;48.272;10.794;2022-11-15T10:11:23;95208.91;;;9.96;63.15
10978;BME280;5542;48.272;10.794;2022-11-15T10:13:52;95200.72;;;9.92;63.98
10978;BME280;5542;48.272;10.794;2022-11-15T10:16:52;95197.69;;;10.00;64.69
10978;BME280;5542;48.272;10.794;2022-11-15T10:19:28;95198.28;;;10.03;65.18
10978;BME280;5542;48.272;10.794;2022-11-15T10:22:06;95188.28;;;10.33;60.30
10978;BME280;5542;48.272;10.794;2022-11-15T10:24:41;95182.19;;;10.16;60.80
10978;BME280;5542;48.272;10.794;2022-11-15T10:27:11;95179.72;;;10.09;61.93
10978;BME280;5542;48.272;10.794;2022-11-15T10:29:43;95177.75;;;10.16;62.60
10978;BME280;5542;48.272;10.794;2022-11-15T10:32:13;95179.34;;;10.17;61.96
10978;BME280;5542;48.272;10.794;2022-11-15T10:34:40;95172.72;;;10.15;61.87
10978;BME280;5542;48.272;10.794;2022-11-15T10:37:07;95167.25;;;10.33;61.79
10978;BME280;5542;48.272;10.794;2022-11-15T10:39:34;95161.03;;;10.22;62.06
10978;BME280;5542;48.272;10.794;2022-11-15T10:42:16;95159.66;;;10.20;63.22
10978;BME280;5542;48.272;10.794;2022-11-15T10:44:44;95158.50;;;10.44;63.21
10978;BME280;5542;48.272;10.794;2022-11-15T10:47:25;95154.75;;;10.40;60.91
10978;BME280;5542;48.272;10.794;2022-11-15T10:49:58;95150.06;;;10.25;62.13
10978;BME280;5542;48.272;10.794;2022-11-15T10:52:27;95148.59;;;10.35;63.23
10978;BME280;5542;48.272;10.794;2022-11-15T10:54:57;95148.78;;;10.28;64.31
10978;BME280;5542;48.272;10.794;2022-11-15T10:57:28;95137.00;;;10.31;65.50
10978;BME280;5542;48.272;10.794;2022-11-15T10:59:57;95142.38;;;10.58;64.57
10978;BME280;5542;48.272;10.794;2022-11-15T11:02:32;95136.09;;;10.59;65.19
10978;BME280;5542;48.272;10.794;2022-11-15T11:05:00;95138.41;;;10.55;65.96
10978;BME280;5542;48.272;10.794;2022-11-15T11:07:29;95127.38;;;10.58;67.08
10978;BME280;5542;48.272;10.794;2022-11-15T11:09:58;95121.91;;;10.60;67.88
10978;BME280;5542;48.272;10.794;2022-11-15T11:12:30;95116.72;;;10.65;68.07
10978;BME280;5542;48.272;10.794;2022-11-15T11:14:58;95114.31;;;10.85;66.25
10978;BME280;5542;48.272;10.794;2022-11-15T11:17:35;95113.06;;;10.88;67.04
10978;BME280;5542;48.272;10.794;2022-11-15T11:20:09;95111.75;;;10.90;65.66
10978;BME280;5542;48.272;10.794;2022-11-15T11:22:46;95100.69;;;10.88;66.10
10978;BME280;5542;48.272;10.794;2022-11-15T11:25:25;95101.16;;;10.85;66.37
10978;BME280;5542;48.272;10.794;2022-11-15T11:28:02;95095.97;;;10.90;66.30
10978;BME280;5542;48.272;10.794;2022-11-15T11:30:40;95090.72;;;11.12;64.01
10978;BME280;5542;48.272;10.794;2022-11-15T11:33:16;95089.91;;;11.12;64.49
10978;BME280;5542;48.272;10.794;2022-11-15T11:35:51;95085.13;;;11.09;63.42
10978;BME280;5542;48.272;10.794;2022-11-15T11:38:34;95079.38;;;11.12;63.66
10978;BME280;5542;48.272;10.794;2022-11-15T11:41:13;95084.94;;;11.15;62.57
10978;BME280;5542;48.272;10.794;2022-11-15T11:43:50;95090.75;;;11.17;63.24
10978;BME280;5542;48.272;10.794;2022-11-15T11:46:34;95091.13;;;11.26;63.41
10978;BME280;5542;48.272;10.794;2022-11-15T11:49:09;95087.78;;;11.36;61.57
10978;BME280;5542;48.272;10.794;2022-11-15T11:51:39;95085.97;;;11.36;61.82
10978;BME280;5542;48.272;10.794;2022-11-15T11:54:12;95074.72;;;11.46;62.17
10978;BME280;5542;48.272;10.794;2022-11-15T11:56:43;95076.66;;;11.56;61.34
10978;BME280;5542;48.272;10.794;2022-11-15T11:59:16;95066.66;;;11.58;60.40
10978;BME280;5542;48.272;10.794;2022-11-15T12:01:45;95071.50;;;11.71;58.61
10978;BME280;5542;48.272;10.794;2022-11-15T12:04:16;95065.06;;;11.84;57.26
10978;BME280;5542;48.272;10.794;2022-11-15T12:06:48;95068.13;;;11.75;58.23
10978;BME280;5542;48.272;10.794;2022-11-15T12:09:21;95071.13;;;11.84;58.04
10978;BME280;5542;48.272;10.794;2022-11-15T12:11:54;95067.97;;;11.82;56.24
10978;BME280;5542;48.272;10.794;2022-11-15T12:14:29;95059.09;;;11.93;54.47
10978;BME280;5542;48.272;10.794;2022-11-15T12:16:58;95052.16;;;11.82;56.20
10978;BME280;5542;48.272;10.794;2022-11-15T12:19:26;95053.78;;;11.88;56.09
10978;BME280;5542;48.272;10.794;2022-11-15T12:21:58;95054.44;;;11.73;57.40
10978;BME280;5542;48.272;10.794;2022-11-15T12:24:29;95057.81;;;11.69;57.94
10978;BME280;5542;48.272;10.794;2022-11-15T12:27:02;95054.13;;;11.70;56.64
10978;BME280;5542;48.272;10.794;2022-11-15T12:29:35;95054.13;;;11.70;56.62
10978;BME280;5542;48.272;10.794;2022-11-15T12:32:04;95049.56;;;11.87;55.31
10978;BME280;5542;48.272;10.794;2022-11-15T12:34:40;95049.78;;;11.86;54.37
10978;BME280;5542;48.272;10.794;2022-11-15T12:40:26;95047.47;;;11.89;55.09
10978;BME280;5542;48.272;10.794;2022-11-15T12:43:00;95045.56;;;11.85;55.31
10978;BME280;5542;48.272;10.794;2022-11-15T12:45:29;95046.16;;;11.92;55.72
10978;BME280;5542;48.272;10.794;2022-11-15T12:51:03;95041.72;;;11.97;55.21
10978;BME280;5542;48.272;10.794;2022-11-15T12:53:31;95043.56;;;11.97;55.94
10978;BME280;5542;48.272;10.794;2022-11-15T12:58:56;95047.31;;;12.06;55.94
10978;BME280;5542;48.272;10.794;2022-11-15T13:01:57;95041.81;;;12.13;54.76
10978;BME280;5542;48.272;10.794;2022-11-15T13:04:27;95051.94;;;12.26;54.77
10978;BME280;5542;48.272;10.794;2022-11-15T13:06:57;95052.91;;;12.20;55.12
10978;BME280;5542;48.272;10.794;2022-11-15T13:09:52;95052.91;;;12.20;55.55
10978;BME280;5542;48.272;10.794;2022-11-15T13:12:48;95045.06;;;12.25;55.07
10978;BME280;5542;48.272;10.794;2022-11-15T13:15:45;95051.91;;;12.21;55.32
10978;BME280;5542;48.272;10.794;2022-11-15T13:18:38;95051.97;;;12.36;54.62
10978;BME280;5542;48.272;10.794;2022-11-15T13:21:18;95051.75;;;12.43;54.46
10978;BME280;5542;48.272;10.794;2022-11-15T13:24:11;95055.41;;;12.37;54.83
10978;BME280;5542;48.272;10.794;2022-11-15T13:26:39;95057.25;;;12.36;54.99
10978;BME280;5542;48.272;10.794;2022-11-15T13:29:15;95052.47;;;12.33;55.11
10978;BME280;5542;48.272;10.794;2022-11-15T13:31:43;95053.28;;;12.34;55.45
10978;BME280;5542;48.272;10.794;2022-11-15T13:34:22;95052.75;;;12.32;55.75
10978;BME280;5542;48.272;10.794;2022-11-15T13:36:50;95044.38;;;12.40;56.44